Time;durP1;ratioP1;P1;durP2;ratioP2;P2;SDS_P1;SDS_P2;PMS_P1;PMS_P2;Temp;Humidity;BMP_temperature;BMP_pressure;BME280_temperature;BME280_humidity;BME280_pressure;Samples;Min_cycle;Max_cycle;Signal;HPM_P1;HPM_P2
2023/11/21 00:00:17;;;;;;;14.23;11.23;;;9.50;99.90;;;;;;5053888;28;20024;-85
2023/11/21 00:02:43;;;;;;;17.40;12.02;;;9.50;99.90;;;;;;5053973;28;20013;-85
2023/11/21 00:05:10;;;;;;;16.63;12.13;;;9.50;99.90;;;;;;5054542;28;20110;-82
2023/11/21 00:07:39;;;;;;;17.50;12.82;;;9.40;99.90;;;;;;5057255;28;20020;-83
2023/11/21 00:10:06;;;;;;;16.98;11.82;;;9.40;99.90;;;;;;5057245;28;20033;-83
2023/11/21 00:12:33;;;;;;;17.48;11.85;;;9.40;99.90;;;;;;5057071;28;20029;-84
2023/11/21 00:14:59;;;;;;;17.60;11.18;;;9.40;99.90;;;;;;5040601;28;20033;-82
2023/11/21 00:17:24;;;;;;;16.13;12.10;;;9.40;99.90;;;;;;5040389;28;20102;-83
2023/11/21 00:19:53;;;;;;;17.45;11.82;;;9.40;99.90;;;;;;5024083;28;20521;-83
2023/11/21 00:22:19;;;;;;;16.42;11.88;;;9.40;99.90;;;;;;5057831;28;20047;-83
2023/11/21 00:24:45;;;;;;;14.98;12.07;;;9.30;99.90;;;;;;5056792;28;20114;-84
2023/11/21 00:27:11;;;;;;;15.85;11.23;;;9.30;99.90;;;;;;5057197;28;20133;-84
2023/11/21 00:29:38;;;;;;;17.40;12.13;;;9.30;99.90;;;;;;5024079;28;20079;-84
2023/11/21 00:32:05;;;;;;;16.88;10.70;;;9.30;99.90;;;;;;5057417;28;20017;-84
2023/11/21 00:34:31;;;;;;;14.98;10.88;;;9.30;99.90;;;;;;5063509;28;20050;-84
2023/11/21 00:36:57;;;;;;;16.95;12.02;;;9.20;99.90;;;;;;5061824;28;20024;-83
2023/11/21 00:39:22;;;;;;;17.00;11.75;;;9.20;99.90;;;;;;5081511;28;20029;-84
2023/11/21 00:41:48;;;;;;;17.65;12.00;;;9.20;99.90;;;;;;5097959;28;20088;-84
2023/11/21 00:44:14;;;;;;;14.63;11.10;;;9.20;99.90;;;;;;5063860;28;20269;-84
2023/11/21 00:46:42;;;;;;;15.90;10.68;;;9.20;99.90;;;;;;5077693;28;20468;-85
2023/11/21 00:49:08;;;;;;;16.50;11.38;;;9.10;99.90;;;;;;5040379;28;20109;-84
2023/11/21 00:51:34;;;;;;;17.25;10.98;;;9.10;99.90;;;;;;5040125;28;20057;-84
2023/11/21 00:54:00;;;;;;;16.33;11.73;;;9.20;99.90;;;;;;5023467;28;20383;-84
2023/11/21 00:56:26;;;;;;;15.98;10.68;;;9.10;99.90;;;;;;5056538;28;20025;-84
2023/11/21 00:58:52;;;;;;;15.68;11.00;;;9.20;99.90;;;;;;5056056;28;20035;-84
2023/11/21 01:01:18;;;;;;;14.48;10.90;;;9.20;99.90;;;;;;5039214;28;20098;-84
2023/11/21 01:03:46;;;;;;;18.38;11.60;;;9.10;99.90;;;;;;5073922;28;20062;-84
2023/11/21 01:06:12;;;;;;;17.25;11.38;;;9.10;99.90;;;;;;5055902;28;20040;-84
2023/11/21 01:08:37;;;;;;;16.77;11.60;;;9.10;99.90;;;;;;5073967;28;20028;-84
2023/11/21 01:11:04;;;;;;;16.40;11.40;;;9.20;99.90;;;;;;5056058;28;20380;-84
2023/11/21 01:13:30;;;;;;;17.50;12.63;;;9.10;99.90;;;;;;5023482;28;20039;-84
2023/11/21 01:15:56;;;;;;;18.73;12.52;;;9.20;99.90;;;;;;5039647;28;20028;-84
2023/11/21 01:18:21;;;;;;;19.55;12.23;;;9.20;99.90;;;;;;5039317;28;20033;-85
2023/11/21 01:20:47;;;;;;;16.60;11.68;;;9.20;99.90;;;;;;5039263;28;20035;-84
2023/11/21 01:23:13;;;;;;;18.48;13.15;;;9.30;99.90;;;;;;5073317;28;20050;-84
2023/11/21 01:25:39;;;;;;;18.45;12.93;;;9.30;99.90;;;;;;5056007;28;20036;-84
2023/11/21 01:28:06;;;;;;;21.05;13.32;;;9.40;99.90;;;;;;5038930;28;20062;-84
2023/11/21 01:30:32;;;;;;;19.15;13.07;;;9.40;99.90;;;;;;5039216;28;20033;-85
2023/11/21 01:32:58;;;;;;;21.33;13.32;;;9.40;99.90;;;;;;5073601;28;20468;-84
2023/11/21 01:35:24;;;;;;;21.00;13.48;;;9.40;99.90;;;;;;5055462;28;20391;-84
2023/11/21 01:37:50;;;;;;;19.40;13.27;;;9.40;99.90;;;;;;5022402;28;20085;-85
2023/11/21 01:40:16;;;;;;;18.02;12.85;;;9.50;99.90;;;;;;5073621;28;20499;-84
2023/11/21 01:42:46;;;;;;;18.67;13.05;;;9.50;99.90;;;;;;5039053;28;20078;-85
2023/11/21 01:45:13;;;;;;;18.73;13.23;;;9.50;99.90;;;;;;5039484;28;20029;-84
2023/11/21 01:47:41;;;;;;;17.80;13.30;;;9.50;99.90;;;;;;5039063;28;20028;-84
2023/11/21 01:50:08;;;;;;;21.65;12.05;;;9.50;99.90;;;;;;5055222;28;20409;-84
2023/11/21 01:52:38;;;;;;;19.80;13.25;;;9.50;99.90;;;;;;5038957;28;20025;-84
2023/11/21 01:55:06;;;;;;;17.85;12.30;;;9.60;99.90;;;;;;5039920;28;20495;-83
2023/11/21 01:57:39;;;;;;;20.90;13.45;;;9.60;99.90;;;;;;5059794;28;20111;-84
2023/11/21 02:00:15;;;;;;;17.83;11.68;;;9.60;99.90;;;;;;5059924;28;20024;-84
2023/11/21 02:02:43;;;;;;;17.33;12.23;;;9.60;99.90;;;;;;5044316;28;20098;-84
2023/11/21 02:05:19;;;;;;;17.65;12.43;;;9.60;99.90;;;;;;5059490;28;20067;-84
2023/11/21 02:07:47;;;;;;;18.23;12.93;;;9.60;99.90;;;;;;5046671;28;20123;-84
2023/11/21 02:10:16;;;;;;;18.40;12.38;;;9.60;99.90;;;;;;5064926;28;20013;-83
2023/11/21 02:12:42;;;;;;;20.40;13.50;;;9.70;99.90;;;;;;5085177;28;20016;-83
2023/11/21 02:15:19;;;;;;;17.38;12.75;;;9.70;99.90;;;;;;5067606;28;20036;-84
2023/11/21 02:17:51;;;;;;;18.77;12.70;;;9.70;99.90;;;;;;5060186;28;20047;-84
2023/11/21 02:20:18;;;;;;;19.02;12.23;;;9.70;99.90;;;;;;5059796;28;20060;-85
2023/11/21 02:23:00;;;;;;;16.25;12.02;;;9.70;99.90;;;;;;5059709;28;20029;-84
2023/11/21 02:25:27;;;;;;;21.52;12.70;;;9.70;99.90;;;;;;5059488;28;20481;-84
2023/11/21 02:27:56;;;;;;;16.88;11.88;;;9.70;99.90;;;;;;5042664;28;20027;-84
2023/11/21 02:30:22;;;;;;;19.45;12.95;;;9.70;99.90;;;;;;5041613;28;20454;-84
2023/11/21 02:32:49;;;;;;;16.63;11.52;;;9.70;99.90;;;;;;5076805;28;20040;-84
2023/11/21 02:35:15;;;;;;;16.88;11.95;;;9.70;99.90;;;;;;5042483;28;20467;-85
2023/11/21 02:37:41;;;;;;;18.33;12.48;;;9.70;99.90;;;;;;5042915;28;20032;-85
2023/11/21 02:40:12;;;;;;;14.57;11.00;;;9.70;99.90;;;;;;5077368;28;20029;-84
2023/11/21 02:42:38;;;;;;;16.38;11.65;;;9.70;99.90;;;;;;5059414;28;20024;-85
2023/11/21 02:45:05;;;;;;;18.08;12.40;;;9.70;99.90;;;;;;5042317;28;20383;-85
2023/11/21 02:47:31;;;;;;;21.15;13.00;;;9.70;99.90;;;;;;5042906;28;20071;-85
2023/11/21 02:49:56;;;;;;;21.13;13.98;;;9.70;99.90;;;;;;5058893;28;20428;-85
2023/11/21 02:52:25;;;;;;;23.45;14.07;;;9.70;99.90;;;;;;5059236;28;20028;-85
2023/11/21 02:54:51;;;;;;;22.08;13.43;;;9.80;99.90;;;;;;5042864;28;20558;-85
2023/11/21 02:57:17;;;;;;;25.83;15.13;;;9.80;99.90;;;;;;5058918;28;20029;-85
2023/11/21 02:59:42;;;;;;;26.88;15.35;;;9.80;99.90;;;;;;5058922;28;20081;-85
2023/11/21 03:02:08;;;;;;;22.77;15.60;;;9.80;99.90;;;;;;5025824;28;20033;-85
2023/11/21 03:04:34;;;;;;;30.65;16.13;;;9.80;99.90;;;;;;5058631;28;20484;-85
2023/11/21 03:07:00;;;;;;;29.70;16.95;;;9.90;99.90;;;;;;5057921;28;20541;-85
2023/11/21 03:09:27;;;;;;;28.98;17.35;;;9.90;99.90;;;;;;5058561;28;20032;-85
2023/11/21 03:11:56;;;;;;;31.92;17.45;;;9.90;99.90;;;;;;5076454;28;20035;-85
2023/11/21 03:14:21;;;;;;;27.75;16.77;;;9.90;99.90;;;;;;5058340;28;20040;-85
2023/11/21 03:16:49;;;;;;;27.88;17.17;;;9.90;99.90;;;;;;5058654;28;20108;-85
2023/11/21 03:19:15;;;;;;;24.63;16.42;;;9.90;99.90;;;;;;5058642;28;20021;-85
2023/11/21 03:21:40;;;;;;;27.00;16.40;;;9.90;99.90;;;;;;5058710;28;20028;-85
2023/11/21 03:24:07;;;;;;;25.10;16.65;;;9.90;99.90;;;;;;5041309;28;20037;-85
2023/11/21 03:26:33;;;;;;;26.50;16.60;;;9.90;99.90;;;;;;5041492;28;20056;-85
2023/11/21 03:28:58;;;;;;;25.25;17.10;;;9.90;99.90;;;;;;5041695;28;20511;-85
2023/11/21 03:31:24;;;;;;;21.95;15.55;;;9.90;99.90;;;;;;5041709;28;20056;-85
2023/11/21 03:33:50;;;;;;;21.63;15.40;;;9.90;99.90;;;;;;5076216;28;20590;-85
2023/11/21 03:36:15;;;;;;;21.05;15.60;;;10.00;99.90;;;;;;5045813;28;20032;-85
2023/11/21 03:38:41;;;;;;;24.75;15.23;;;9.90;99.90;;;;;;5044288;28;20036;-86
2023/11/21 03:41:10;;;;;;;23.23;15.23;;;10.00;99.90;;;;;;5050610;28;20032;-86
2023/11/21 03:43:37;;;;;;;22.85;15.27;;;10.00;99.90;;;;;;5081048;28;20100;-86
2023/11/21 03:46:03;;;;;;;21.95;14.82;;;10.00;99.90;;;;;;5082751;28;20020;-85
2023/11/21 03:48:28;;;;;;;20.85;15.57;;;10.00;99.90;;;;;;5082674;28;20479;-86
2023/11/21 03:50:54;;;;;;;18.02;13.57;;;10.00;99.90;;;;;;5068893;28;20033;-85
2023/11/21 03:53:19;;;;;;;17.85;13.60;;;10.00;99.90;;;;;;5077313;28;20090;-85
2023/11/21 03:55:45;;;;;;;17.27;13.07;;;10.00;99.90;;;;;;5076394;28;20467;-85
2023/11/21 03:58:11;;;;;;;17.70;12.82;;;10.00;99.90;;;;;;5057964;28;20037;-85
2023/11/21 04:00:36;;;;;;;17.55;12.88;;;10.00;99.90;;;;;;5075342;28;20032;-86
2023/11/21 04:03:03;;;;;;;17.58;13.15;;;10.00;99.90;;;;;;5041053;28;20029;-86
2023/11/21 04:05:28;;;;;;;19.52;13.85;;;10.00;99.90;;;;;;5057398;28;20078;-85
2023/11/21 04:07:54;;;;;;;18.00;12.55;;;10.10;99.90;;;;;;5040929;28;20052;-85
2023/11/21 04:10:20;;;;;;;16.90;13.43;;;10.00;99.90;;;;;;5024235;28;20116;-85
2023/11/21 04:12:46;;;;;;;17.27;12.90;;;10.00;99.90;;;;;;5075456;28;20033;-86
2023/11/21 04:15:14;;;;;;;17.67;13.15;;;10.00;99.90;;;;;;5056951;28;20123;-86
2023/11/21 04:17:41;;;;;;;17.80;13.55;;;10.00;99.90;;;;;;5040258;28;20567;-85
2023/11/21 04:20:09;;;;;;;18.58;12.88;;;10.00;99.90;;;;;;5040694;28;20028;-85
2023/11/21 04:22:43;;;;;;;19.02;13.50;;;10.00;99.90;;;;;;5057052;28;20376;-85
2023/11/21 04:25:14;;;;;;;20.45;14.70;;;10.10;99.90;;;;;;5058030;28;20107;-85
2023/11/21 04:27:43;;;;;;;21.63;14.70;;;10.10;99.90;;;;;;5074998;28;20106;-85
2023/11/21 04:30:10;;;;;;;18.48;14.43;;;10.10;99.90;;;;;;5057279;28;20063;-86
2023/11/21 04:32:35;;;;;;;20.63;13.98;;;10.00;99.90;;;;;;5075290;28;20397;-86
2023/11/21 04:35:01;;;;;;;18.08;13.65;;;10.00;99.90;;;;;;5075043;28;20134;-86
2023/11/21 04:37:27;;;;;;;16.35;13.57;;;10.10;99.90;;;;;;5074740;28;20384;-86
2023/11/21 04:39:52;;;;;;;17.60;12.80;;;10.00;99.90;;;;;;5074804;28;20476;-86
2023/11/21 04:42:18;;;;;;;16.67;12.68;;;10.10;99.90;;;;;;5040896;28;20031;-86
2023/11/21 04:44:44;;;;;;;15.70;11.82;;;10.00;99.90;;;;;;5077733;28;20038;-87
2023/11/21 04:47:10;;;;;;;17.00;11.80;;;10.00;99.90;;;;;;5054262;28;20025;-84
2023/11/21 04:49:36;;;;;;;15.40;11.25;;;10.10;99.90;;;;;;5058456;28;20025;-86
2023/11/21 04:52:03;;;;;;;16.33;11.57;;;10.10;99.90;;;;;;5038744;28;20038;-85
2023/11/21 04:54:30;;;;;;;14.70;10.70;;;10.10;99.90;;;;;;5080793;28;20032;-86
2023/11/21 04:56:56;;;;;;;17.83;12.30;;;10.10;99.90;;;;;;5042274;28;20020;-86
2023/11/21 04:59:24;;;;;;;18.13;12.63;;;10.10;99.90;;;;;;5057657;28;20444;-85
2023/11/21 05:01:50;;;;;;;14.90;11.35;;;10.00;99.90;;;;;;5057403;28;20385;-85
2023/11/21 05:04:16;;;;;;;15.73;12.05;;;10.10;99.90;;;;;;5056609;28;20127;-85
2023/11/21 05:06:44;;;;;;;17.23;11.63;;;10.10;99.90;;;;;;5056348;28;20094;-85
2023/11/21 05:09:11;;;;;;;18.10;11.63;;;10.10;99.90;;;;;;5040333;28;20038;-85
2023/11/21 05:11:38;;;;;;;16.42;12.00;;;10.10;99.90;;;;;;5057604;28;20025;-86
2023/11/21 05:14:05;;;;;;;18.30;12.15;;;10.10;99.90;;;;;;5074144;28;20028;-84
2023/11/21 05:16:31;;;;;;;15.93;11.90;;;10.10;99.90;;;;;;5064796;28;20020;-83
2023/11/21 05:19:00;;;;;;;15.10;11.48;;;10.10;99.90;;;;;;5081128;28;20009;-84
2023/11/21 05:21:26;;;;;;;16.80;12.48;;;10.10;99.90;;;;;;5064785;28;20013;-85
2023/11/21 05:23:52;;;;;;;15.35;11.98;;;10.10;99.90;;;;;;5080534;28;20047;-86
2023/11/21 05:26:18;;;;;;;16.90;12.10;;;10.10;99.90;;;;;;5074592;28;20357;-86
2023/11/21 05:28:43;;;;;;;17.38;12.38;;;10.10;99.90;;;;;;5073987;28;20481;-85
2023/11/21 05:31:10;;;;;;;15.65;12.38;;;10.20;99.90;;;;;;5074282;28;20025;-86
2023/11/21 05:33:36;;;;;;;16.15;12.10;;;10.10;99.90;;;;;;5039901;28;20055;-87
2023/11/21 05:36:02;;;;;;;16.70;12.82;;;10.20;99.90;;;;;;5055673;28;20475;-86
2023/11/21 05:38:28;;;;;;;15.48;11.60;;;10.20;99.90;;;;;;5039510;28;20036;-86
2023/11/21 05:40:54;;;;;;;14.15;11.18;;;10.20;99.90;;;;;;5039897;28;20028;-85
2023/11/21 05:43:20;;;;;;;15.65;11.90;;;10.20;99.90;;;;;;5055961;28;20032;-84
2023/11/21 05:45:45;;;;;;;13.05;10.45;;;10.20;99.90;;;;;;5055651;28;20029;-84
2023/11/21 05:48:11;;;;;;;13.57;10.65;;;10.20;99.90;;;;;;5022486;28;20037;-86
2023/11/21 05:50:38;;;;;;;15.18;10.95;;;10.20;99.90;;;;;;5022919;28;20062;-86
2023/11/21 05:53:03;;;;;;;14.13;11.20;;;10.20;99.90;;;;;;5073711;28;20425;-85
2023/11/21 05:55:31;;;;;;;16.58;11.65;;;10.20;99.90;;;;;;5056085;28;20029;-86
2023/11/21 05:57:57;;;;;;;16.10;12.02;;;10.20;99.90;;;;;;5055668;28;20410;-86
2023/11/21 06:00:25;;;;;;;14.48;11.38;;;10.20;99.90;;;;;;5055730;28;20116;-86
2023/11/21 06:02:54;;;;;;;15.52;11.90;;;10.20;99.90;;;;;;5073709;28;20025;-86
2023/11/21 06:05:23;;;;;;;13.57;11.23;;;10.20;99.90;;;;;;5073394;28;20487;-85
2023/11/21 06:07:50;;;;;;;15.70;11.80;;;10.20;99.90;;;;;;5055627;28;20021;-86
2023/11/21 06:10:17;;;;;;;13.32;10.93;;;10.20;99.90;;;;;;5055433;28;20024;-85
2023/11/21 06:12:43;;;;;;;15.15;11.90;;;10.20;99.90;;;;;;5073302;28;20440;-85
2023/11/21 06:15:13;;;;;;;14.73;12.18;;;10.20;99.90;;;;;;5038938;28;20384;-87
2023/11/21 06:17:39;;;;;;;15.00;11.50;;;10.20;99.90;;;;;;5055283;28;20120;-86
2023/11/21 06:20:09;;;;;;;17.08;12.13;;;10.20;99.90;;;;;;5055532;28;20029;-87
2023/11/21 06:22:40;;;;;;;15.52;12.00;;;10.20;99.90;;;;;;5055214;28;20112;-85
2023/11/21 06:25:06;;;;;;;14.85;11.52;;;10.30;99.90;;;;;;5055445;28;20384;-86
2023/11/21 06:27:42;;;;;;;17.40;12.45;;;10.30;99.90;;;;;;5073271;28;20033;-86
2023/11/21 06:30:09;;;;;;;15.70;11.55;;;10.30;99.90;;;;;;5039017;28;20025;-88
2023/11/21 06:32:36;;;;;;;17.85;12.98;;;10.30;99.90;;;;;;5073519;28;20048;-86
2023/11/21 06:35:03;;;;;;;19.70;12.40;;;10.30;99.90;;;;;;5055913;28;20033;-86
2023/11/21 06:37:30;;;;;;;14.40;11.07;;;10.30;99.90;;;;;;5073441;28;20097;-87
2023/11/21 06:39:56;;;;;;;16.45;12.48;;;10.30;99.90;;;;;;5055561;28;20028;-86
2023/11/21 06:42:23;;;;;;;15.38;12.32;;;10.30;99.90;;;;;;5058733;28;20051;-86
2023/11/21 06:44:51;;;;;;;15.32;12.77;;;10.30;99.90;;;;;;5043416;28;20535;-87
2023/11/21 06:47:17;;;;;;;17.83;12.80;;;10.30;99.90;;;;;;5097792;28;20028;-86
2023/11/21 06:49:43;;;;;;;16.77;12.63;;;10.40;99.90;;;;;;5066012;28;20012;-86
2023/11/21 06:52:09;;;;;;;15.80;11.55;;;10.30;99.90;;;;;;5067394;28;20052;-86
2023/11/21 06:54:35;;;;;;;17.40;12.27;;;10.30;99.90;;;;;;5081793;28;20012;-88
2023/11/21 06:57:01;;;;;;;15.52;12.57;;;10.40;99.90;;;;;;5030309;28;20441;-86
2023/11/21 06:59:28;;;;;;;15.98;12.30;;;10.40;99.90;;;;;;5046339;28;20441;-87
2023/11/21 07:01:54;;;;;;;16.05;12.77;;;10.40;99.90;;;;;;5059976;28;20020;-86
2023/11/21 07:04:20;;;;;;;17.23;12.95;;;10.40;99.90;;;;;;5042259;28;20472;-86
2023/11/21 07:06:46;;;;;;;16.83;12.80;;;10.40;99.90;;;;;;5055299;28;20501;-87
2023/11/21 07:09:12;;;;;;;18.42;13.60;;;10.40;99.90;;;;;;5055350;28;20025;-86
2023/11/21 07:11:38;;;;;;;18.05;12.60;;;10.40;99.90;;;;;;5022423;28;20527;-86
2023/11/21 07:14:07;;;;;;;16.48;12.65;;;10.40;99.90;;;;;;5038543;28;20033;-86
2023/11/21 07:16:37;;;;;;;16.30;12.52;;;10.40;99.90;;;;;;5054966;28;20029;-87
2023/11/21 07:19:07;;;;;;;19.77;13.10;;;10.40;99.90;;;;;;5055157;28;20086;-86
2023/11/21 07:21:33;;;;;;;17.00;13.35;;;10.40;99.90;;;;;;5055326;28;20487;-86
2023/11/21 07:24:00;;;;;;;15.70;13.50;;;10.40;99.90;;;;;;5038222;28;20388;-86
2023/11/21 07:26:27;;;;;;;18.38;13.77;;;10.40;99.90;;;;;;5055097;28;20456;-86
2023/11/21 07:28:53;;;;;;;17.30;13.70;;;10.40;99.90;;;;;;5038425;28;20048;-86
2023/11/21 07:31:19;;;;;;;20.52;13.88;;;10.40;99.90;;;;;;5038133;28;20477;-86
2023/11/21 07:33:47;;;;;;;16.70;13.52;;;10.40;99.90;;;;;;5056034;28;20021;-87
2023/11/21 07:36:13;;;;;;;19.20;14.07;;;10.50;99.90;;;;;;5038749;28;20037;-86
2023/11/21 07:38:39;;;;;;;17.30;13.95;;;10.40;99.90;;;;;;5055876;28;20398;-86
2023/11/21 07:41:05;;;;;;;18.65;13.98;;;10.40;99.90;;;;;;5055941;28;20104;-86
2023/11/21 07:43:34;;;;;;;17.90;13.73;;;10.50;99.90;;;;;;5037727;28;20064;-86
2023/11/21 07:46:03;;;;;;;19.85;14.60;;;10.40;99.90;;;;;;5038433;28;20021;-86
2023/11/21 07:48:32;;;;;;;17.73;14.05;;;10.50;99.90;;;;;;5038364;28;20025;-86
2023/11/21 07:50:58;;;;;;;17.52;13.68;;;10.50;99.90;;;;;;5055683;28;20017;-86
2023/11/21 07:53:29;;;;;;;18.70;14.20;;;10.50;99.90;;;;;;5053588;28;20017;-87
2023/11/21 07:55:55;;;;;;;19.40;14.43;;;10.50;99.90;;;;;;5037799;28;20029;-86
2023/11/21 07:58:21;;;;;;;18.23;14.02;;;10.50;99.90;;;;;;5037731;28;20086;-86
2023/11/21 08:00:47;;;;;;;19.00;13.93;;;10.50;99.90;;;;;;5037544;28;20021;-86
2023/11/21 08:03:16;;;;;;;20.05;13.55;;;10.50;99.90;;;;;;5054669;28;20029;-86
2023/11/21 08:05:42;;;;;;;17.55;13.68;;;10.50;99.90;;;;;;5037588;28;20049;-86
2023/11/21 08:08:08;;;;;;;21.13;14.90;;;10.60;99.90;;;;;;5054373;28;20499;-87
2023/11/21 08:10:35;;;;;;;18.95;13.98;;;10.60;99.90;;;;;;5055694;28;20025;-86
2023/11/21 08:13:02;;;;;;;19.52;14.10;;;10.60;99.90;;;;;;5054668;28;20048;-86
2023/11/21 08:15:28;;;;;;;20.98;14.20;;;10.60;99.90;;;;;;5064554;28;20029;-86
2023/11/21 08:17:53;;;;;;;20.10;14.52;;;10.70;99.90;;;;;;5058508;28;20107;-86
2023/11/21 08:20:19;;;;;;;19.20;13.95;;;10.70;99.90;;;;;;5062207;28;20085;-86
2023/11/21 08:22:47;;;;;;;19.70;14.68;;;10.70;99.90;;;;;;5078994;28;20009;-87
2023/11/21 08:25:13;;;;;;;20.13;14.75;;;10.70;99.90;;;;;;5078550;28;20029;-86
2023/11/21 08:27:38;;;;;;;21.52;14.48;;;10.70;99.90;;;;;;5048472;28;20025;-86
2023/11/21 08:30:05;;;;;;;20.83;14.07;;;10.70;99.90;;;;;;5054582;28;20021;-86
2023/11/21 08:32:32;;;;;;;22.10;14.60;;;10.80;99.90;;;;;;5054447;28;20087;-86
2023/11/21 08:34:59;;;;;;;20.42;14.90;;;10.80;99.90;;;;;;5037709;28;20048;-86
2023/11/21 08:37:26;;;;;;;21.38;14.93;;;10.80;99.90;;;;;;5037659;28;20376;-86
2023/11/21 08:39:52;;;;;;;25.17;14.38;;;10.80;99.90;;;;;;5054755;28;20029;-86
2023/11/21 08:42:22;;;;;;;21.17;15.02;;;10.80;99.90;;;;;;5021119;28;20059;-86
2023/11/21 08:44:48;;;;;;;21.30;15.18;;;10.80;99.90;;;;;;5053226;28;20068;-86
2023/11/21 08:47:14;;;;;;;21.45;15.55;;;10.80;99.90;;;;;;5053579;28;20064;-86
2023/11/21 08:49:40;;;;;;;23.02;16.67;;;10.80;99.90;;;;;;5053396;28;20124;-85
2023/11/21 08:52:06;;;;;;;22.85;14.77;;;10.80;99.90;;;;;;5053209;28;20030;-86
2023/11/21 08:54:32;;;;;;;26.13;16.33;;;10.90;99.90;;;;;;5037160;28;20098;-86
2023/11/21 08:57:00;;;;;;;24.63;15.55;;;10.90;99.90;;;;;;5054362;28;20108;-86
2023/11/21 08:59:26;;;;;;;22.33;15.23;;;10.90;99.90;;;;;;5037485;28;20480;-86
2023/11/21 09:01:52;;;;;;;19.42;14.25;;;10.90;99.90;;;;;;5053028;28;20033;-86
2023/11/21 09:04:17;;;;;;;21.48;15.57;;;10.90;99.90;;;;;;5036115;28;20029;-86
2023/11/21 09:06:43;;;;;;;24.35;15.70;;;10.90;99.90;;;;;;5036407;28;20404;-86
2023/11/21 09:09:10;;;;;;;24.75;15.82;;;10.90;99.90;;;;;;5053139;28;20060;-86
2023/11/21 09:11:36;;;;;;;24.75;16.13;;;11.00;99.90;;;;;;5053983;28;20021;-85
2023/11/21 09:14:05;;;;;;;21.83;15.25;;;11.00;99.90;;;;;;5036195;28;20575;-86
2023/11/21 09:16:31;;;;;;;26.17;16.40;;;11.00;99.90;;;;;;5036640;28;20039;-86
2023/11/21 09:18:57;;;;;;;25.10;16.40;;;11.00;99.90;;;;;;5036325;28;20025;-86
2023/11/21 09:21:24;;;;;;;27.10;17.27;;;11.00;99.90;;;;;;5053132;28;20025;-86
2023/11/21 09:23:50;;;;;;;24.77;16.63;;;11.10;99.90;;;;;;5036484;28;20037;-86
2023/11/21 09:26:16;;;;;;;24.50;16.08;;;11.10;99.90;;;;;;5019711;28;20376;-85
2023/11/21 09:28:46;;;;;;;27.17;17.33;;;11.10;99.90;;;;;;5052768;28;20029;-85
2023/11/21 09:31:12;;;;;;;28.23;17.83;;;11.10;99.90;;;;;;5054150;28;20036;-86
2023/11/21 09:33:38;;;;;;;25.17;17.65;;;11.00;99.90;;;;;;5052333;28;20036;-86
2023/11/21 09:36:04;;;;;;;25.88;18.02;;;11.10;99.90;;;;;;5036158;28;20078;-86
2023/11/21 09:38:31;;;;;;;28.35;17.95;;;11.10;99.90;;;;;;5052569;28;20025;-85
2023/11/21 09:40:58;;;;;;;28.52;17.38;;;11.10;99.90;;;;;;5052458;28;20026;-86
2023/11/21 09:43:27;;;;;;;26.02;18.05;;;11.10;99.90;;;;;;5052481;28;20388;-86
2023/11/21 09:46:00;;;;;;;28.05;18.15;;;11.00;99.90;;;;;;5052707;28;20029;-86
2023/11/21 09:48:27;;;;;;;26.33;17.27;;;11.00;99.90;;;;;;5052842;28;20083;-86
2023/11/21 09:50:54;;;;;;;24.38;17.10;;;11.00;99.90;;;;;;5020678;28;20037;-86
2023/11/21 09:53:21;;;;;;;26.92;17.73;;;11.00;99.90;;;;;;5050877;28;20083;-86
2023/11/21 09:55:50;;;;;;;28.67;17.73;;;11.00;99.90;;;;;;5077483;28;20009;-86
2023/11/21 09:58:16;;;;;;;26.33;17.33;;;11.00;99.90;;;;;;5061221;28;20092;-86
2023/11/21 10:00:46;;;;;;;24.77;17.30;;;11.00;99.90;;;;;;5077325;28;20017;-86
2023/11/21 10:03:13;;;;;;;29.35;17.58;;;11.00;99.90;;;;;;5058910;28;20059;-86
2023/11/21 10:05:40;;;;;;;25.63;16.52;;;11.00;99.90;;;;;;5053309;28;20033;-86
2023/11/21 10:08:10;;;;;;;29.45;17.88;;;11.00;99.90;;;;;;5055921;28;20083;-86
2023/11/21 10:10:44;;;;;;;23.97;17.13;;;11.00;99.90;;;;;;5039081;28;20028;-86
2023/11/21 10:13:12;;;;;;;26.60;17.38;;;11.10;99.90;;;;;;5055869;28;20275;-86
2023/11/21 10:15:38;;;;;;;28.05;18.17;;;11.10;99.90;;;;;;5055549;28;20025;-86
2023/11/21 10:18:06;;;;;;;30.67;18.95;;;11.10;99.90;;;;;;5042941;28;20375;-86
2023/11/21 10:20:37;;;;;;;25.42;17.50;;;11.20;99.90;;;;;;5043151;28;20553;-86
2023/11/21 10:23:03;;;;;;;;;;;11.20;99.90;;;;;;5060008;28;20029;-87
2023/11/21 10:25:29;;;;;;;31.90;18.42;;;11.30;99.90;;;;;;5077506;28;19919;-87
2023/11/21 10:28:00;;;;;;;28.52;18.83;;;11.20;99.90;;;;;;5059475;28;20468;-86
2023/11/21 10:30:37;;;;;;;24.88;17.58;;;11.20;99.90;;;;;;5042750;28;20036;-86
2023/11/21 10:33:04;;;;;;;26.33;18.15;;;11.30;99.90;;;;;;5042831;28;20120;-86
2023/11/21 10:35:40;;;;;;;26.95;18.05;;;11.30;99.90;;;;;;5042865;28;20124;-86
2023/11/21 10:38:08;;;;;;;24.30;17.45;;;11.40;99.90;;;;;;5042544;28;20063;-87
2023/11/21 10:40:33;;;;;;;27.15;17.85;;;11.40;99.90;;;;;;5077056;28;20090;-87
2023/11/21 10:43:08;;;;;;;30.50;18.27;;;11.50;99.90;;;;;;5042713;28;20028;-86
2023/11/21 10:45:34;;;;;;;24.88;16.33;;;11.40;99.90;;;;;;5059122;28;20021;-87
2023/11/21 10:48:00;;;;;;;29.40;18.63;;;11.40;99.90;;;;;;5043028;28;20060;-86
2023/11/21 10:50:26;;;;;;;26.35;17.52;;;11.50;99.90;;;;;;5059239;28;20435;-86
2023/11/21 10:52:52;;;;;;;22.50;15.60;;;11.50;99.90;;;;;;5059475;28;20071;-86
2023/11/21 10:55:21;;;;;;;24.00;16.33;;;11.60;99.90;;;;;;5042690;28;20071;-87
2023/11/21 10:57:53;;;;;;;20.33;15.05;;;11.60;99.90;;;;;;5042739;28;20024;-86
2023/11/21 11:00:20;;;;;;;23.83;15.93;;;11.60;99.90;;;;;;5059423;28;20070;-86
2023/11/21 11:02:49;;;;;;;24.48;16.52;;;11.60;99.90;;;;;;5072252;28;20024;-86
2023/11/21 11:05:19;;;;;;;24.52;16.98;;;11.60;99.90;;;;;;5081355;28;20037;-86
2023/11/21 11:07:48;;;;;;;21.63;15.35;;;11.60;99.90;;;;;;5058636;28;20053;-86
2023/11/21 11:10:14;;;;;;;20.77;14.80;;;11.60;99.90;;;;;;5061085;28;20040;-86
2023/11/21 11:12:45;;;;;;;22.90;16.02;;;11.60;99.90;;;;;;5052991;28;20033;-86
2023/11/21 11:15:11;;;;;;;21.60;15.68;;;11.60;99.90;;;;;;5061612;28;20033;-87
2023/11/21 11:17:41;;;;;;;22.90;14.98;;;11.60;99.90;;;;;;5057890;28;20031;-87
2023/11/21 11:20:11;;;;;;;21.30;14.82;;;11.60;99.90;;;;;;5040880;28;20029;-86
2023/11/21 11:22:43;;;;;;;22.17;15.70;;;11.60;99.90;;;;;;5040552;28;20036;-86
2023/11/21 11:25:27;;;;;;;19.77;14.88;;;11.60;99.90;;;;;;5040579;28;20041;-85
2023/11/21 11:28:14;;;;;;;22.17;15.10;;;11.60;99.90;;;;;;5070335;28;20067;-86
2023/11/21 11:31:03;;;;;;;25.55;16.00;;;11.60;99.90;;;;;;5080869;28;20033;-86
2023/11/21 11:33:41;;;;;;;20.60;14.93;;;11.60;99.90;;;;;;5079807;28;20017;-85
2023/11/21 11:36:11;;;;;;;17.90;13.32;;;11.60;99.90;;;;;;5079497;28;20006;-85
2023/11/21 11:38:36;;;;;;;18.98;13.90;;;11.70;99.90;;;;;;5058602;28;20021;-86
2023/11/21 11:41:04;;;;;;;19.70;13.25;;;11.70;99.90;;;;;;5056787;28;20052;-86
2023/11/21 11:43:32;;;;;;;19.45;14.15;;;11.70;99.90;;;;;;5056160;28;20071;-86
2023/11/21 11:45:59;;;;;;;16.60;12.02;;;11.70;99.90;;;;;;5038578;28;20030;-86
2023/11/21 11:48:25;;;;;;;14.45;10.98;;;11.60;99.90;;;;;;5054480;28;20029;-86
2023/11/21 11:51:10;;;;;;;14.90;10.73;;;11.50;99.90;;;;;;5054718;28;20032;-86
2023/11/21 11:53:37;;;;;;;14.85;10.77;;;11.50;99.90;;;;;;5054502;28;20021;-86
2023/11/21 11:56:25;;;;;;;12.20;9.23;;;11.40;99.90;;;;;;5054758;28;20032;-86
2023/11/21 11:58:55;;;;;;;13.45;10.18;;;11.40;99.90;;;;;;5054693;28;20035;-86
2023/11/21 12:01:22;;;;;;;11.95;8.80;;;11.30;99.90;;;;;;5054276;28;20017;-86
2023/11/21 12:04:23;;;;;;;12.77;9.45;;;11.40;99.90;;;;;;5054474;28;20072;-86
2023/11/21 12:06:52;;;;;;;12.90;9.60;;;11.40;99.90;;;;;;5054399;28;20053;-86
2023/11/21 12:09:26;;;;;;;11.60;8.57;;;11.30;99.90;;;;;;5054183;28;20029;-87
2023/11/21 12:11:53;;;;;;;10.30;7.80;;;11.40;99.90;;;;;;5054570;28;20037;-86
2023/11/21 12:14:20;;;;;;;11.73;8.70;;;11.40;99.90;;;;;;5054143;28;20029;-86
2023/11/21 12:16:46;;;;;;;12.15;8.80;;;11.50;99.90;;;;;;5037930;28;20079;-86
2023/11/21 12:19:12;;;;;;;9.55;7.90;;;11.50;99.90;;;;;;5054022;28;20032;-86
2023/11/21 12:21:40;;;;;;;10.38;7.90;;;11.50;99.90;;;;;;5037070;28;20036;-87
2023/11/21 12:24:08;;;;;;;10.63;7.93;;;11.50;99.90;;;;;;5037687;28;20037;-87
2023/11/21 12:26:36;;;;;;;9.00;6.88;;;11.50;99.90;;;;;;5054087;28;20040;-87
2023/11/21 12:29:04;;;;;;;9.13;7.32;;;11.50;99.90;;;;;;5037597;28;20036;-86
2023/11/21 12:31:30;;;;;;;10.77;7.93;;;11.50;99.90;;;;;;5037458;28;20028;-87